Airfield :
LOGIN :

Register | Disclaimer

   EN    FR    IT 

 










Legend :    VFR   Marginal VFR   IFR   Intensive IFR   Very Intensive IFR
Visi :
Ceiling :
>= 8 km
>= 3000ft
5 to 8 km
1000 to 3000 ft
1500m to 5 km
500 to 1000 ft
800 to 1500m
200 to 500 ft
< 800m
< 200 ft
Symbols :   Thunderstorms  Fog  Heavy snow  Heavy precipitations  Wind > 20 kt
SIGMETs :     Misc.  Thunderstorms  Icing  Turbulence  Mountain Waves  Volcanic Ashes







- Airport Elevation : 458 ft
- Download approach charts


LFSI - St-Dizier

CURRENT METAR :
  • 191100Z AUTO VRB03KT 9000 OVC009 07/05 Q1023

EXPIRED METARs :
  • 191030Z AUTO 00000KT 8000 OVC009 07/05 Q1023
  • 191000Z AUTO 26003KT 7000 OVC009 06/05 Q1023
  • 190930Z AUTO 27003KT 8000 SCT010 OVC039 06/05 Q1023
  • 190900Z AUTO VRB02KT 9000 SCT032 OVC039 06/04 Q1022
  • 190830Z AUTO 00000KT 8000 FEW022 SCT027 OVC034 05/04 Q1022

TAF AMD TAF LFSI
Valid from the 19 at 09:00 until the 20 at 09:00 UTC


190927Z 1909/2009 20003KT 9999 SCT010 BKN030
TEMPO 1909/1915 BKN010 BKN030
TEMPO 2001/2009 4000 BR
PROB40
TEMPO 2004/2008 0700 BCFG
No reported NOTAMs for that airfield.
1 SIGMET reported for the Paris FIR (LFFF) :
 
Severe turbulence
LFFF SIGMET 2 VALID 190800/191200 LFPW
LFFF PARIS FIR/UIR SEV TURB FCST WI N4715 E00130 - N4715 W00015 - N4800 W00015 - N4900 E00100 - N4830 E00230 - N4715 E00130 FL200/300 MOV E 10KT WKN=



MET'MAP, your aeronautical weather chart ! - Copyright ORBIFLY December 2007 - Disclaimer

ORBIFLY MET'MAP TEAM :

Programming & Development : Alexandra Zaïnal
Concept & Development : Baudouin d'Aumeries
Co-Development & Prog : Marc-Olivier Méhu
Technical & hardware support : Manuel Goepfert

Contact : metmap@orbifly.com




SOURCES & CREDITS :

   NOAA